Time;durP1;ratioP1;P1;durP2;ratioP2;P2;SDS_P1;SDS_P2;PMS_P1;PMS_P2;Temp;Humidity;BMP_temperature;BMP_pressure;BME280_temperature;BME280_humidity;BME280_pressure;Samples;Min_cycle;Max_cycle;Signal;HPM_P1;HPM_P2
2022/05/02 00:02:06;;;;;;;5.60;3.40;;;14.10;99.90;;;;;;1916321;75;21675;-80
2022/05/02 00:04:57;;;;;;;4.42;3.33;;;14.10;99.90;;;;;;1915903;75;21102;-80
2022/05/02 00:07:50;;;;;;;3.67;3.00;;;14.00;99.90;;;;;;1916019;75;21126;-79
2022/05/02 00:10:41;;;;;;;5.10;2.60;;;14.00;99.90;;;;;;1904099;75;21265;-79
2022/05/02 00:13:33;;;;;;;3.98;2.98;;;14.00;99.90;;;;;;1904176;75;21043;-79
2022/05/02 00:16:24;;;;;;;4.10;2.85;;;14.00;99.90;;;;;;1908428;74;21593;-79
2022/05/02 00:19:16;;;;;;;3.02;2.42;;;13.90;99.90;;;;;;1916563;74;21098;-79
2022/05/02 00:22:07;;;;;;;4.08;2.98;;;13.90;99.90;;;;;;1916771;75;21057;-80
2022/05/02 00:24:59;;;;;;;5.15;2.98;;;13.90;99.90;;;;;;1927652;73;21118;-80
2022/05/02 00:27:52;;;;;;;5.85;3.08;;;13.90;99.90;;;;;;1909225;74;21212;-80
2022/05/02 00:30:45;;;;;;;3.72;2.98;;;13.80;99.90;;;;;;1904253;75;21135;-80
2022/05/02 00:33:37;;;;;;;5.90;3.10;;;13.70;99.90;;;;;;1904301;75;21081;-80
2022/05/02 00:36:28;;;;;;;2.70;2.50;;;13.70;99.90;;;;;;1904015;75;21055;-80
2022/05/02 00:39:20;;;;;;;3.70;2.85;;;13.60;99.90;;;;;;1903970;75;21067;-79
2022/05/02 00:42:11;;;;;;;3.85;2.75;;;13.60;99.90;;;;;;1904325;75;21558;-79
2022/05/02 00:45:04;;;;;;;3.98;3.12;;;13.50;99.90;;;;;;1938080;73;21051;-79
2022/05/02 00:47:58;;;;;;;3.87;2.67;;;13.50;99.90;;;;;;1904275;75;21131;-79
2022/05/02 00:50:49;;;;;;;3.00;2.65;;;13.40;99.90;;;;;;1904349;75;21170;-80
2022/05/02 00:53:41;;;;;;;5.33;2.55;;;13.40;99.90;;;;;;1916573;75;21051;-79
2022/05/02 00:56:33;;;;;;;3.77;2.52;;;13.40;99.90;;;;;;1916353;75;21180;-80
2022/05/02 00:59:25;;;;;;;4.30;2.67;;;13.40;99.90;;;;;;1916392;75;21146;-80
2022/05/02 01:02:17;;;;;;;3.70;2.30;;;13.50;99.90;;;;;;1904104;75;21110;-80
2022/05/02 01:05:09;;;;;;;4.25;2.92;;;13.40;99.90;;;;;;1904306;75;21148;-80
2022/05/02 01:08:01;;;;;;;3.70;2.77;;;13.40;99.90;;;;;;1905699;74;21118;-79
2022/05/02 01:10:53;;;;;;;4.10;2.98;;;13.30;99.90;;;;;;1918528;74;21155;-80
2022/05/02 01:13:47;;;;;;;3.47;2.50;;;13.20;99.90;;;;;;1930491;73;21074;-80
2022/05/02 01:16:38;;;;;;;3.37;2.55;;;13.20;99.90;;;;;;1950111;73;21617;-79
2022/05/02 01:19:30;;;;;;;3.77;2.20;;;13.20;99.90;;;;;;1923487;73;21110;-80
2022/05/02 01:22:21;;;;;;;3.35;2.67;;;13.10;99.90;;;;;;1904096;75;21108;-81
2022/05/02 01:25:12;;;;;;;4.95;2.70;;;13.10;99.90;;;;;;1904335;75;21059;-80
2022/05/02 01:28:05;;;;;;;3.72;2.90;;;13.10;99.90;;;;;;1916619;75;21564;-80
2022/05/02 01:30:57;;;;;;;2.72;2.52;;;13.00;99.90;;;;;;1904369;75;21127;-79
2022/05/02 01:33:49;;;;;;;4.08;2.80;;;13.00;99.90;;;;;;1904306;75;21350;-79
2022/05/02 01:36:43;;;;;;;3.72;2.83;;;12.90;99.90;;;;;;1916709;75;21180;-79
2022/05/02 01:39:34;;;;;;;3.27;2.35;;;12.90;99.90;;;;;;1928426;73;21590;-79
2022/05/02 01:42:26;;;;;;;3.58;2.83;;;12.90;99.90;;;;;;1927504;73;21106;-80
2022/05/02 01:45:18;;;;;;;4.95;2.80;;;12.90;99.90;;;;;;1927805;73;21175;-79
2022/05/02 01:48:10;;;;;;;3.62;2.87;;;12.80;99.90;;;;;;1932542;73;21080;-80
2022/05/02 01:51:01;;;;;;;3.17;2.80;;;12.80;99.90;;;;;;1916759;75;21111;-79
2022/05/02 01:53:52;;;;;;;3.05;2.65;;;12.80;99.90;;;;;;1916604;75;21172;-80
2022/05/02 01:56:44;;;;;;;3.00;2.70;;;12.80;99.90;;;;;;1916554;75;21187;-79
2022/05/02 01:59:35;;;;;;;3.37;2.70;;;12.70;99.90;;;;;;1916627;75;21063;-80
2022/05/02 02:02:26;;;;;;;4.00;2.83;;;12.70;99.90;;;;;;1904349;75;21578;-79
2022/05/02 02:08:28;;;;;;;3.30;2.72;;;12.60;99.90;;;;;;1939073;73;21177;-79
2022/05/02 02:11:20;;;;;;;6.12;3.10;;;12.60;99.90;;;;;;1941729;73;21075;-79
2022/05/02 02:14:12;;;;;;;3.47;3.17;;;12.60;99.90;;;;;;1926027;74;21176;-79
2022/05/02 02:17:04;;;;;;;5.72;3.45;;;12.60;99.90;;;;;;1925396;74;21107;-80
2022/05/02 02:19:55;;;;;;;3.10;2.62;;;12.60;99.90;;;;;;1948522;73;21110;-80
2022/05/02 02:22:47;;;;;;;5.10;3.15;;;12.60;99.90;;;;;;1925549;74;21140;-80
2022/05/02 02:25:40;;;;;;;3.17;2.87;;;12.60;99.90;;;;;;1925907;74;21094;-79
2022/05/02 02:28:32;;;;;;;5.08;3.20;;;12.50;99.90;;;;;;1941491;73;21106;-80
2022/05/02 02:31:23;;;;;;;4.33;3.00;;;12.50;99.90;;;;;;1927867;73;21079;-80
2022/05/02 02:34:14;;;;;;;5.20;3.15;;;12.40;99.90;;;;;;1926309;74;22178;-79
2022/05/02 02:37:06;;;;;;;3.95;3.55;;;12.40;99.90;;;;;;1949098;73;21526;-80
2022/05/02 02:39:58;;;;;;;4.80;3.17;;;12.40;99.90;;;;;;1926300;74;21059;-80
2022/05/02 02:42:50;;;;;;;3.47;3.10;;;12.30;99.90;;;;;;1939169;73;21151;-80
2022/05/02 02:45:41;;;;;;;4.17;3.20;;;12.40;99.90;;;;;;1929850;73;21146;-80
2022/05/02 02:48:32;;;;;;;3.80;3.15;;;12.30;99.90;;;;;;1926200;73;21064;-80
2022/05/02 02:51:24;;;;;;;4.08;3.00;;;12.30;99.90;;;;;;1946428;73;21142;-80
2022/05/02 02:54:15;;;;;;;4.92;3.33;;;12.30;99.90;;;;;;1945589;73;21227;-80
2022/05/02 02:57:08;;;;;;;3.55;3.20;;;12.20;99.90;;;;;;1949389;73;21066;-80
2022/05/02 02:59:59;;;;;;;4.30;3.10;;;12.20;99.90;;;;;;1879935;76;21471;-80
2022/05/02 03:02:51;;;;;;;3.95;3.50;;;12.20;99.90;;;;;;1916316;75;21219;-80
2022/05/02 03:08:51;;;;;;;3.60;3.30;;;12.20;99.90;;;;;;1931294;73;21188;-80
2022/05/02 03:11:43;;;;;;;4.80;3.02;;;12.20;99.90;;;;;;1918520;73;21152;-80
2022/05/02 03:14:34;;;;;;;3.75;2.83;;;12.20;99.90;;;;;;1904235;75;21117;-80
2022/05/02 03:17:26;;;;;;;3.75;3.10;;;12.20;99.90;;;;;;1916662;75;21176;-80
2022/05/02 03:20:17;;;;;;;4.58;2.85;;;12.20;99.90;;;;;;1919821;74;21602;-80
2022/05/02 03:23:08;;;;;;;4.50;3.30;;;12.20;99.90;;;;;;1917105;73;21135;-80
2022/05/02 03:25:59;;;;;;;4.60;3.30;;;12.20;99.90;;;;;;1903641;75;21114;-80
2022/05/02 03:28:51;;;;;;;4.62;3.35;;;12.10;99.90;;;;;;1916679;75;21058;-80
2022/05/02 03:31:42;;;;;;;4.30;3.00;;;12.00;99.90;;;;;;1904188;75;21114;-80
2022/05/02 03:34:34;;;;;;;3.40;3.05;;;11.90;99.90;;;;;;1914088;74;21588;-80
2022/05/02 03:37:25;;;;;;;4.53;3.60;;;11.90;99.90;;;;;;1910846;74;21098;-80
2022/05/02 03:40:16;;;;;;;6.00;3.42;;;11.90;99.90;;;;;;1904321;75;21526;-80
2022/05/02 03:43:08;;;;;;;5.05;3.17;;;11.80;99.90;;;;;;1933310;73;21094;-80
2022/05/02 03:45:59;;;;;;;4.40;3.42;;;11.80;99.90;;;;;;1927776;73;21585;-81
2022/05/02 03:48:51;;;;;;;3.80;3.17;;;11.80;99.90;;;;;;1927810;73;21058;-80
2022/05/02 03:51:42;;;;;;;5.25;3.33;;;11.80;99.90;;;;;;1931581;73;21102;-80
2022/05/02 03:54:34;;;;;;;5.20;3.30;;;11.80;99.90;;;;;;1922007;74;21134;-80
2022/05/02 03:57:26;;;;;;;4.03;3.35;;;11.80;99.90;;;;;;1925386;74;21155;-80
2022/05/02 04:00:19;;;;;;;5.42;3.35;;;11.90;99.90;;;;;;1916715;75;21150;-80
2022/05/02 04:03:12;;;;;;;4.53;3.17;;;11.80;99.90;;;;;;1916500;75;21114;-80
2022/05/02 04:06:05;;;;;;;7.53;3.65;;;11.80;99.90;;;;;;1904328;75;21215;-80
2022/05/02 04:08:56;;;;;;;4.97;3.30;;;11.80;99.90;;;;;;1918601;74;21059;-80
2022/05/02 04:11:48;;;;;;;5.97;3.37;;;11.80;99.90;;;;;;1905802;74;21146;-80
2022/05/02 04:14:40;;;;;;;6.97;3.35;;;11.70;99.90;;;;;;1904158;75;21137;-80
2022/05/02 04:17:31;;;;;;;4.75;3.25;;;11.70;99.90;;;;;;1867076;76;21219;-80
2022/05/02 04:20:23;;;;;;;4.12;3.00;;;11.80;99.90;;;;;;1827148;77;21082;-80
2022/05/02 04:23:14;;;;;;;4.90;3.62;;;11.80;99.90;;;;;;1876262;75;21160;-80
2022/05/02 04:26:05;;;;;;;5.55;3.30;;;11.70;99.90;;;;;;1873976;75;21088;-80
2022/05/02 04:28:57;;;;;;;7.25;3.62;;;11.70;99.90;;;;;;1868479;77;21118;-80
2022/05/02 04:31:48;;;;;;;5.55;3.72;;;11.60;99.90;;;;;;1868964;77;21099;-80
2022/05/02 04:34:40;;;;;;;4.75;3.85;;;11.60;99.90;;;;;;1868623;75;21223;-81
2022/05/02 04:37:32;;;;;;;7.17;4.00;;;11.60;99.90;;;;;;1868215;77;21040;-80
2022/05/02 04:40:23;;;;;;;5.92;3.77;;;11.70;99.90;;;;;;1868611;77;21105;-81
2022/05/02 04:43:15;;;;;;;5.42;3.40;;;11.70;99.90;;;;;;1867863;77;21163;-82
2022/05/02 04:46:07;;;;;;;4.17;3.60;;;11.70;99.90;;;;;;1868769;77;21102;-81
2022/05/02 04:48:58;;;;;;;5.20;3.25;;;11.70;99.90;;;;;;1874971;75;21137;-82
2022/05/02 04:51:49;;;;;;;4.72;3.55;;;11.70;99.90;;;;;;1877551;75;21126;-80
2022/05/02 04:54:41;;;;;;;6.00;3.42;;;11.70;99.90;;;;;;1885943;75;21177;-81
2022/05/02 04:57:32;;;;;;;4.17;3.27;;;11.80;99.90;;;;;;1849649;77;21106;-80
2022/05/02 05:00:25;;;;;;;4.35;3.55;;;11.80;99.90;;;;;;1867564;77;21232;-82
2022/05/02 05:03:16;;;;;;;4.40;3.60;;;11.90;99.90;;;;;;1874135;76;21121;-82
2022/05/02 05:06:08;;;;;;;8.75;4.17;;;11.80;99.90;;;;;;1845482;77;21200;-82
2022/05/02 05:09:00;;;;;;;5.22;3.62;;;11.90;99.90;;;;;;1927040;74;21094;-82
2022/05/02 05:11:57;;;;;;;4.05;3.50;;;11.90;99.90;;;;;;1916446;75;21777;-81
2022/05/02 05:18:09;;;;;;;7.03;4.08;;;12.00;99.90;;;;;;1916538;75;21052;-82
2022/05/02 05:21:03;;;;;;;4.42;3.55;;;11.90;99.90;;;;;;1938464;73;21122;-82
2022/05/02 05:24:32;;;;;;;5.20;3.58;;;11.90;99.90;;;;;;1903898;75;21176;-82
2022/05/02 05:27:39;;;;;;;6.00;3.63;;;12.00;99.90;;;;;;1872239;75;21206;-85
2022/05/02 05:30:34;;;;;;;4.03;3.27;;;12.10;99.90;;;;;;1899929;75;21067;-83
2022/05/02 05:33:30;;;;;;;7.03;3.60;;;12.10;99.90;;;;;;1861893;76;21118;-84
2022/05/02 05:36:27;;;;;;;3.37;3.08;;;12.00;99.90;;;;;;1847475;77;21107;-82
2022/05/02 05:39:22;;;;;;;5.60;3.75;;;12.00;99.90;;;;;;1859514;77;21249;-83
2022/05/02 05:42:17;;;;;;;6.97;3.70;;;12.00;99.90;;;;;;1877503;76;21843;-82
2022/05/02 05:45:12;;;;;;;8.00;4.00;;;12.10;99.90;;;;;;1926361;74;21087;-83
2022/05/02 05:48:08;;;;;;;5.30;3.52;;;12.10;99.90;;;;;;1903942;75;21522;-84
2022/05/02 05:51:05;;;;;;;4.85;3.83;;;12.20;99.90;;;;;;1917318;74;21091;-83
2022/05/02 05:54:01;;;;;;;4.55;3.92;;;12.30;99.90;;;;;;1905489;74;21118;-82
2022/05/02 05:56:57;;;;;;;5.65;4.50;;;12.30;99.90;;;;;;1938875;73;21485;-81
2022/05/02 05:59:56;;;;;;;5.42;4.03;;;12.40;99.90;;;;;;1904935;74;21181;-83
2022/05/02 06:02:57;;;;;;;5.55;4.10;;;12.50;99.90;;;;;;1924554;74;21095;-82
2022/05/02 06:05:50;;;;;;;6.92;4.20;;;12.60;99.90;;;;;;1904120;75;21103;-83
2022/05/02 06:08:44;;;;;;;5.12;4.40;;;12.60;99.90;;;;;;1903705;75;21177;-83
2022/05/02 06:11:38;;;;;;;7.25;4.20;;;12.70;99.90;;;;;;1902172;73;21130;-82
2022/05/02 06:14:33;;;;;;;9.48;3.87;;;12.80;99.90;;;;;;1903715;75;21558;-82
2022/05/02 06:20:39;;;;;;;3.95;2.98;;;12.90;99.90;;;;;;1936085;73;21175;-83
2022/05/02 06:23:34;;;;;;;5.35;3.30;;;12.80;99.90;;;;;;1916308;75;21500;-82
2022/05/02 06:26:26;;;;;;;4.33;3.20;;;12.80;99.90;;;;;;1939424;73;21122;-82
2022/05/02 06:29:21;;;;;;;6.08;3.15;;;12.80;99.90;;;;;;1916772;75;21055;-82
2022/05/02 06:32:13;;;;;;;7.70;3.30;;;12.90;99.90;;;;;;1916556;75;21120;-83
2022/05/02 06:35:05;;;;;;;6.55;3.37;;;13.00;99.90;;;;;;1916368;75;21176;-82
2022/05/02 06:38:00;;;;;;;4.25;3.37;;;13.20;99.90;;;;;;1927951;73;22251;-82
2022/05/02 06:40:55;;;;;;;8.48;4.30;;;13.30;99.90;;;;;;1919073;73;21116;-83
2022/05/02 06:43:49;;;;;;;5.62;3.62;;;13.50;99.90;;;;;;1939703;73;21051;-83
2022/05/02 06:49:25;;;;;;;7.87;4.03;;;13.70;99.90;;;;;;1961634;72;22149;-80
2022/05/02 06:52:39;;;;;;;6.28;3.95;;;13.80;99.90;;;;;;1917537;75;21083;-81
2022/05/02 06:55:52;;;;;;;6.25;3.55;;;14.00;99.90;;;;;;1917214;75;21430;-81
2022/05/02 06:58:49;;;;;;;7.05;4.00;;;14.10;99.90;;;;;;1917564;75;21191;-81
2022/05/02 07:02:01;;;;;;;4.78;3.92;;;14.10;99.90;;;;;;1940092;73;21194;-81
2022/05/02 07:04:56;;;;;;;5.87;3.70;;;14.20;99.90;;;;;;1940676;73;21051;-81
2022/05/02 07:08:00;;;;;;;7.40;4.08;;;14.10;99.90;;;;;;1917698;75;21059;-81
2022/05/02 07:10:54;;;;;;;7.00;3.90;;;14.10;99.90;;;;;;1917596;75;21105;-81
2022/05/02 07:13:52;;;;;;;7.45;4.17;;;14.30;99.90;;;;;;1932430;73;21099;-83
2022/05/02 07:16:47;;;;;;;6.55;4.17;;;14.40;99.90;;;;;;1917859;73;21067;-81
2022/05/02 07:19:48;;;;;;;5.10;3.42;;;14.50;99.90;;;;;;1917732;75;21485;-81
2022/05/02 07:22:40;;;;;;;8.20;4.37;;;14.50;99.90;;;;;;1917859;75;21185;-81
2022/05/02 07:25:33;;;;;;;5.67;3.80;;;14.60;99.90;;;;;;1938477;73;21089;-82
2022/05/02 07:28:29;;;;;;;8.75;4.05;;;14.60;99.90;;;;;;1935586;73;21062;-81
2022/05/02 07:31:23;;;;;;;4.67;3.80;;;14.70;99.90;;;;;;1929345;73;21050;-81
2022/05/02 07:34:16;;;;;;;4.40;3.17;;;14.70;99.90;;;;;;1922474;73;21133;-81
2022/05/02 07:37:10;;;;;;;6.40;4.03;;;14.80;99.90;;;;;;1917853;75;21063;-81
2022/05/02 07:40:04;;;;;;;5.80;4.00;;;14.90;99.90;;;;;;1917758;75;21062;-81
2022/05/02 07:42:57;;;;;;;6.40;3.95;;;15.00;99.90;;;;;;1917781;75;21074;-81
2022/05/02 07:45:49;;;;;;;5.50;4.28;;;15.00;99.90;;;;;;1940118;73;21209;-81
2022/05/02 07:48:45;;;;;;;5.78;3.83;;;15.10;99.90;;;;;;1943813;73;21086;-81
2022/05/02 07:51:41;;;;;;;6.65;3.50;;;15.10;99.90;;;;;;1948778;73;21078;-81
2022/05/02 07:54:37;;;;;;;5.75;3.50;;;15.20;99.90;;;;;;1927109;74;21042;-81
2022/05/02 07:57:31;;;;;;;5.25;3.47;;;15.20;99.90;;;;;;1880830;76;21059;-81
2022/05/02 08:00:24;;;;;;;5.40;3.65;;;15.30;99.90;;;;;;1888019;75;21104;-81
2022/05/02 08:03:18;;;;;;;5.05;3.27;;;15.30;99.90;;;;;;1887529;75;21113;-81
2022/05/02 08:06:16;;;;;;;4.60;3.00;;;15.40;99.90;;;;;;1917098;75;21090;-81
2022/05/02 08:09:14;;;;;;;5.45;3.35;;;15.40;99.90;;;;;;1917087;75;21138;-81
2022/05/02 08:12:11;;;;;;;3.58;3.27;;;15.50;99.90;;;;;;1917125;75;21099;-81
2022/05/02 08:15:08;;;;;;;8.00;3.37;;;15.50;99.90;;;;;;1917312;75;21078;-81
2022/05/02 08:18:19;;;;;;;3.25;2.95;;;15.50;99.90;;;;;;1916918;75;21091;-81
2022/05/02 08:21:16;;;;;;;5.47;3.05;;;15.70;99.90;;;;;;1916880;75;21173;-81
2022/05/02 08:27:43;;;;;;;8.65;3.12;;;15.80;99.90;;;;;;1901573;73;21099;-81
2022/05/02 08:30:37;;;;;;;6.92;3.75;;;15.90;99.90;;;;;;1928468;73;21052;-81
2022/05/02 08:33:30;;;;;;;3.95;2.98;;;15.80;99.90;;;;;;1932392;73;21191;-81
2022/05/02 08:36:26;;;;;;;5.80;2.77;;;16.00;99.90;;;;;;1929635;73;21058;-81
2022/05/02 08:39:21;;;;;;;10.35;3.67;;;16.10;99.90;;;;;;1942685;73;21172;-81
2022/05/02 08:42:34;;;;;;;4.55;3.20;;;16.10;99.90;;;;;;1916977;75;21141;-80
2022/05/02 08:49:41;;;;;;;4.72;3.17;;;16.20;99.90;;;;;;1946831;72;22163;-80
2022/05/02 08:53:35;;;;;;;4.83;2.83;;;16.40;99.90;;;;;;1899875;75;21147;-80
2022/05/02 08:57:13;;;;;;;8.38;3.75;;;16.30;99.90;;;;;;1907038;75;21135;-80
2022/05/02 09:00:07;;;;;;;5.65;3.20;;;16.40;99.90;;;;;;1886099;75;21553;-80
2022/05/02 09:04:03;;;;;;;5.85;3.67;;;16.40;99.90;;;;;;1895487;75;21054;-80
2022/05/02 09:07:20;;;;;;;7.17;3.33;;;16.40;99.90;;;;;;1866783;75;21060;-80
2022/05/02 09:10:14;;;;;;;5.20;3.65;;;16.50;99.90;;;;;;1886779;75;21086;-80
2022/05/02 09:13:46;;;;;;;5.95;3.33;;;16.60;99.90;;;;;;1884691;75;21522;-80
2022/05/02 09:17:00;;;;;;;7.33;3.30;;;16.60;99.90;;;;;;1891976;75;21129;-80
2022/05/02 09:20:16;;;;;;;7.35;3.70;;;16.70;99.90;;;;;;1895703;75;21111;-80
2022/05/02 09:23:49;;;;;;;5.70;3.50;;;16.70;99.90;;;;;;1895848;75;21102;-80
2022/05/02 09:27:24;;;;;;;6.25;3.40;;;16.70;99.90;;;;;;1898518;75;21495;-81
2022/05/02 09:30:44;;;;;;;6.92;3.60;;;16.80;99.90;;;;;;1902993;75;21081;-81
2022/05/02 09:33:44;;;;;;;3.77;3.40;;;16.80;99.90;;;;;;1885004;76;21071;-81
2022/05/02 09:36:41;;;;;;;6.42;3.47;;;16.90;99.90;;;;;;1900481;75;21459;-81
2022/05/02 09:39:39;;;;;;;6.62;3.60;;;17.00;99.90;;;;;;1895935;75;21071;-81
2022/05/02 09:42:44;;;;;;;6.15;3.22;;;17.00;99.90;;;;;;1910282;75;21130;-81
2022/05/02 09:52:14;;;;;;;6.30;4.28;;;17.20;99.90;;;;;;1905166;74;21486;-81
2022/05/02 10:01:39;;;;;;;4.03;2.62;;;17.60;99.90;;;;;;1972758;72;22086;-80
2022/05/02 10:04:51;;;;;;;7.10;2.92;;;17.70;99.90;;;;;;1917809;75;21157;-83
2022/05/02 10:08:06;;;;;;;4.25;2.80;;;17.80;99.90;;;;;;1917696;75;21195;-81
2022/05/02 10:11:00;;;;;;;5.35;2.65;;;17.80;99.90;;;;;;1917356;75;21062;-81
2022/05/02 10:14:37;;;;;;;4.62;2.98;;;17.90;99.90;;;;;;1917132;75;21156;-81
2022/05/02 10:18:03;;;;;;;6.75;2.80;;;18.00;99.90;;;;;;1937640;73;21391;-81
2022/05/02 10:21:07;;;;;;;5.05;2.90;;;18.00;99.90;;;;;;1940140;73;21506;-81
2022/05/02 10:24:06;;;;;;;4.50;2.75;;;18.20;99.90;;;;;;1917311;75;21157;-81
2022/05/02 10:27:00;;;;;;;2.77;2.50;;;18.20;99.90;;;;;;1911193;75;21063;-80
2022/05/02 10:30:11;;;;;;;5.12;2.58;;;18.40;99.90;;;;;;1917849;75;21055;-80
2022/05/02 10:33:05;;;;;;;7.65;2.47;;;18.40;99.90;;;;;;1917679;75;21120;-81
2022/05/02 10:36:00;;;;;;;4.62;2.92;;;18.50;99.90;;;;;;1917548;75;21120;-81
2022/05/02 10:38:56;;;;;;;5.50;2.42;;;18.60;99.90;;;;;;1917683;75;21141;-80
2022/05/02 10:41:49;;;;;;;5.58;3.02;;;18.60;99.90;;;;;;1938339;73;21076;-81
2022/05/02 10:44:51;;;;;;;4.60;2.55;;;18.70;99.90;;;;;;1917724;75;21117;-81
2022/05/02 10:47:47;;;;;;;2.75;2.40;;;18.90;99.90;;;;;;1917765;75;21051;-81
2022/05/02 10:50:40;;;;;;;2.67;2.40;;;19.00;99.90;;;;;;1917706;75;21216;-81
2022/05/02 10:54:12;;;;;;;4.58;2.20;;;19.00;99.90;;;;;;1917819;75;21124;-81
2022/05/02 10:57:07;;;;;;;5.15;2.20;;;19.00;99.90;;;;;;1917885;75;21188;-81
2022/05/02 11:00:02;;;;;;;3.37;2.37;;;19.10;99.90;;;;;;1917611;75;21617;-81
2022/05/02 11:03:11;;;;;;;4.03;2.35;;;19.10;99.90;;;;;;1923496;74;21059;-80
2022/05/02 11:06:09;;;;;;;3.87;2.47;;;19.10;99.90;;;;;;1907636;74;21059;-81
2022/05/02 11:09:04;;;;;;;5.33;2.10;;;19.10;99.90;;;;;;1914389;74;21163;-81
2022/05/02 11:11:56;;;;;;;6.95;3.08;;;19.20;99.90;;;;;;1913463;74;21376;-80
2022/05/02 11:14:53;;;;;;;2.50;2.30;;;19.40;99.90;;;;;;1913379;74;21043;-81
2022/05/02 11:18:07;;;;;;;5.80;2.27;;;19.50;99.90;;;;;;1913342;74;21059;-81
2022/05/02 11:21:01;;;;;;;2.87;2.60;;;19.50;99.90;;;;;;1928397;74;21083;-81
2022/05/02 11:24:17;;;;;;;3.55;2.02;;;19.50;99.90;;;;;;1916060;74;21102;-82
2022/05/02 11:27:18;;;;;;;3.00;2.00;;;19.60;99.90;;;;;;1916545;74;21171;-81
2022/05/02 11:30:12;;;;;;;3.70;2.05;;;19.40;99.90;;;;;;1914131;74;21156;-81
2022/05/02 11:33:09;;;;;;;2.52;1.98;;;19.60;99.90;;;;;;1910701;74;21130;-81
2022/05/02 11:36:03;;;;;;;2.87;2.30;;;19.70;99.90;;;;;;1920928;74;21064;-82
2022/05/02 11:38:58;;;;;;;4.00;2.10;;;19.80;99.90;;;;;;1918654;74;21055;-81
2022/05/02 11:41:52;;;;;;;2.45;2.10;;;19.80;99.90;;;;;;1923071;74;21090;-81
2022/05/02 11:44:49;;;;;;;4.22;2.08;;;20.00;99.90;;;;;;1931369;74;21047;-81
2022/05/02 11:48:10;;;;;;;3.95;2.12;;;19.90;99.90;;;;;;1914642;74;21162;-81
2022/05/02 11:51:05;;;;;;;3.05;1.98;;;20.10;99.90;;;;;;1922325;74;21132;-81
2022/05/02 11:53:59;;;;;;;2.70;1.80;;;20.00;99.90;;;;;;1908906;74;21055;-81
2022/05/02 11:56:56;;;;;;;3.98;1.90;;;20.10;99.90;;;;;;1911284;74;21512;-81
2022/05/02 12:00:03;;;;;;;5.75;2.00;;;20.30;99.90;;;;;;1913421;74;21174;-81
2022/05/02 12:02:57;;;;;;;2.30;2.08;;;20.40;99.90;;;;;;1912601;74;21160;-82
2022/05/02 12:05:51;;;;;;;3.33;1.75;;;20.50;99.90;;;;;;1912616;74;21499;-81
2022/05/02 12:08:45;;;;;;;4.62;2.12;;;20.50;99.90;;;;;;1904410;75;21582;-81
2022/05/02 12:11:53;;;;;;;3.12;1.70;;;20.60;99.90;;;;;;1926776;74;21154;-81
2022/05/02 12:17:25;;;;;;;3.35;2.08;;;20.70;99.90;;;;;;1954797;72;22138;-80
2022/05/02 12:20:37;;;;;;;6.47;1.90;;;20.70;99.90;;;;;;1903301;75;21039;-80
2022/05/02 12:23:48;;;;;;;4.28;2.10;;;20.70;99.90;;;;;;1902820;75;21051;-80
2022/05/02 12:26:46;;;;;;;3.05;2.05;;;20.70;99.90;;;;;;1897511;75;21051;-80
2022/05/02 12:30:01;;;;;;;4.53;1.87;;;20.70;99.90;;;;;;1898478;75;21096;-80
2022/05/02 12:32:54;;;;;;;3.10;1.90;;;20.80;99.90;;;;;;1908003;75;21192;-80
2022/05/02 12:35:46;;;;;;;2.25;1.90;;;20.80;99.90;;;;;;1906989;75;21055;-81
2022/05/02 12:38:39;;;;;;;3.83;2.00;;;20.80;99.90;;;;;;1905510;75;21131;-80
2022/05/02 12:41:32;;;;;;;3.60;1.98;;;21.00;99.90;;;;;;1900318;75;21109;-82
2022/05/02 12:44:26;;;;;;;5.08;2.00;;;21.10;99.90;;;;;;1895644;75;21103;-80
2022/05/02 12:47:22;;;;;;;1.85;1.75;;;21.00;99.90;;;;;;1895347;75;21129;-80
2022/05/02 12:50:17;;;;;;;4.25;1.80;;;21.00;99.90;;;;;;1893845;75;21478;-81
2022/05/02 12:53:13;;;;;;;2.27;1.77;;;21.10;99.90;;;;;;1904854;75;21078;-81
2022/05/02 12:56:05;;;;;;;2.95;2.40;;;21.10;99.90;;;;;;1901799;75;21522;-80
2022/05/02 13:02:08;;;;;;;2.92;1.98;;;21.00;99.90;;;;;;1907633;75;21101;-81
2022/05/02 13:05:00;;;;;;;3.00;1.80;;;21.20;99.90;;;;;;1906685;75;21179;-82
2022/05/02 13:07:54;;;;;;;2.72;2.02;;;21.20;99.90;;;;;;1885103;75;21596;-81
2022/05/02 13:10:47;;;;;;;5.33;2.05;;;21.30;99.90;;;;;;1917635;75;21048;-81
2022/05/02 13:13:42;;;;;;;4.15;1.65;;;21.10;99.90;;;;;;1897222;75;21146;-81
2022/05/02 13:16:37;;;;;;;2.92;2.17;;;21.30;99.90;;;;;;1900637;74;21066;-81
2022/05/02 13:19:37;;;;;;;3.42;1.82;;;21.30;99.90;;;;;;1911542;74;21061;-81
2022/05/02 13:22:30;;;;;;;4.87;2.05;;;21.40;99.90;;;;;;1910770;74;21232;-81
2022/05/02 13:25:22;;;;;;;4.08;2.15;;;21.30;99.90;;;;;;1900272;75;21648;-81
2022/05/02 13:28:18;;;;;;;2.05;1.70;;;21.30;99.90;;;;;;1913100;74;21051;-81
2022/05/02 13:31:14;;;;;;;2.92;1.80;;;21.50;99.90;;;;;;1902202;74;21058;-81
2022/05/02 13:34:07;;;;;;;5.85;1.62;;;21.40;99.90;;;;;;1904293;74;21049;-81
2022/05/02 13:37:05;;;;;;;4.62;1.72;;;21.50;99.90;;;;;;1912267;74;21062;-81
2022/05/02 13:40:04;;;;;;;2.22;1.70;;;21.40;99.90;;;;;;1899978;75;21062;-81
2022/05/02 13:43:01;;;;;;;6.25;1.87;;;21.60;99.90;;;;;;1913645;74;21635;-81
2022/05/02 13:45:59;;;;;;;4.45;1.90;;;21.70;99.90;;;;;;1910936;74;21580;-80
2022/05/02 13:48:59;;;;;;;3.52;1.70;;;21.90;99.90;;;;;;1910645;74;21111;-81
2022/05/02 13:51:56;;;;;;;2.27;2.05;;;21.80;99.90;;;;;;1908384;74;21185;-81
2022/05/02 13:54:53;;;;;;;4.08;1.90;;;21.70;99.90;;;;;;1920865;74;21590;-81
2022/05/02 13:57:47;;;;;;;3.98;1.70;;;22.00;99.90;;;;;;1899961;75;21124;-81
2022/05/02 14:03:54;;;;;;;3.50;1.65;;;22.40;99.20;;;;;;1912092;74;21054;-82
2022/05/02 14:10:03;;;;;;;;;;;22.80;99.10;;;;;;1913471;74;21138;-81
2022/05/02 14:12:53;;;;;;;2.25;1.82;;;22.80;98.70;;;;;;1910740;74;20381;-81
2022/05/02 14:15:47;;;;;;;2.62;1.82;;;23.10;98.10;;;;;;1914088;74;21146;-81
2022/05/02 14:21:50;;;;;;;1.90;1.70;;;23.30;97.50;;;;;;1952407;72;22307;-81
2022/05/02 14:25:00;;;;;;;2.12;1.40;;;23.50;97.00;;;;;;1899232;75;21105;-82
2022/05/02 14:28:16;;;;;;;1.60;1.50;;;23.70;96.00;;;;;;1884670;75;21614;-81
2022/05/02 14:31:08;;;;;;;2.83;1.52;;;24.00;95.80;;;;;;1883600;75;21107;-81
2022/05/02 14:34:17;;;;;;;3.27;1.82;;;23.80;94.90;;;;;;1905429;75;21146;-81
2022/05/02 14:37:10;;;;;;;2.77;1.98;;;23.70;94.60;;;;;;1882522;75;21164;-80
2022/05/02 14:40:02;;;;;;;2.40;1.90;;;23.60;94.50;;;;;;1873077;75;21135;-81
2022/05/02 14:42:54;;;;;;;2.42;2.08;;;23.50;94.50;;;;;;1873100;76;21507;-81
2022/05/02 14:45:46;;;;;;;3.72;1.67;;;23.80;93.90;;;;;;1880643;75;21168;-81
2022/05/02 14:48:39;;;;;;;2.12;1.87;;;23.90;93.60;;;;;;1883854;75;21063;-81
2022/05/02 14:51:38;;;;;;;2.70;1.52;;;24.00;93.10;;;;;;1885556;75;21114;-81
2022/05/02 14:54:29;;;;;;;5.80;2.15;;;24.30;92.60;;;;;;1888630;75;21084;-81
2022/05/02 14:57:23;;;;;;;2.80;1.75;;;24.40;92.40;;;;;;1884116;75;21122;-80
2022/05/02 15:00:19;;;;;;;2.85;1.90;;;24.10;92.50;;;;;;1883582;75;21040;-80
2022/05/02 15:03:13;;;;;;;4.10;1.70;;;24.30;92.10;;;;;;1883714;75;21180;-81
2022/05/02 15:06:07;;;;;;;2.95;1.90;;;24.40;92.00;;;;;;1885290;75;21172;-81
2022/05/02 15:09:12;;;;;;;2.00;1.80;;;24.40;91.40;;;;;;1888306;75;21039;-81
2022/05/02 15:12:07;;;;;;;4.92;1.87;;;24.30;91.20;;;;;;1886165;75;21052;-81
2022/05/02 15:15:33;;;;;;;3.17;1.90;;;24.70;90.80;;;;;;1883739;75;21056;-81
2022/05/02 15:18:37;;;;;;;4.47;2.10;;;25.00;90.70;;;;;;1879186;75;21230;-80
2022/05/02 15:21:28;;;;;;;2.92;1.77;;;25.00;90.00;;;;;;1883749;75;21160;-80
2022/05/02 15:24:53;;;;;;;4.67;1.75;;;25.00;89.30;;;;;;1879331;75;21685;-81
2022/05/02 15:38:01;;;;;;;5.80;1.92;;;24.70;87.60;;;;;;1843879;75;21103;-80
2022/05/02 15:40:53;;;;;;;6.05;1.62;;;24.90;88.30;;;;;;1893907;75;21094;-81
2022/05/02 15:43:51;;;;;;;3.72;1.65;;;25.10;87.40;;;;;;1875650;75;21087;-81
2022/05/02 15:46:44;;;;;;;4.28;1.70;;;25.40;85.80;;;;;;1883044;75;21067;-81
2022/05/02 15:49:38;;;;;;;3.12;1.75;;;25.50;86.30;;;;;;1889060;75;21051;-81
2022/05/02 15:52:30;;;;;;;4.53;1.82;;;25.50;84.90;;;;;;1872220;75;21116;-81
2022/05/02 15:55:38;;;;;;;1.70;1.60;;;25.50;84.80;;;;;;1872194;75;21501;-81
2022/05/02 15:58:29;;;;;;;2.12;1.92;;;25.40;84.30;;;;;;1893803;75;21070;-81
2022/05/02 16:01:36;;;;;;;2.52;2.00;;;25.30;83.80;;;;;;1894086;75;21092;-81
2022/05/02 16:04:31;;;;;;;5.25;2.20;;;25.50;83.80;;;;;;1872743;77;21091;-80
2022/05/02 16:10:39;;;;;;;4.17;1.90;;;26.00;81.80;;;;;;1904447;75;21570;-81
2022/05/02 16:13:39;;;;;;;2.50;1.80;;;25.50;81.70;;;;;;1883904;75;21119;-81
2022/05/02 16:16:34;;;;;;;5.35;2.17;;;25.40;82.00;;;;;;1883169;75;21117;-81
2022/05/02 16:19:26;;;;;;;3.35;1.85;;;25.50;82.10;;;;;;1882893;75;21077;-81
2022/05/02 16:22:17;;;;;;;5.45;2.00;;;25.60;83.40;;;;;;1883838;75;21193;-81
2022/05/02 16:25:14;;;;;;;2.33;1.77;;;25.70;80.90;;;;;;1886465;75;21166;-82
2022/05/02 16:28:15;;;;;;;3.22;1.87;;;25.60;81.40;;;;;;1888466;75;21080;-82